createdAt,value
2019-06-04T00:00:14.152Z,2.80
2019-06-04T00:02:44.602Z,2.90
2019-06-04T00:05:15.044Z,2.70
2019-06-04T00:07:45.526Z,3.13
2019-06-04T00:10:16.026Z,2.93
2019-06-04T00:12:46.604Z,3.17
2019-06-04T00:15:17.103Z,2.43
2019-06-04T00:17:47.461Z,2.57
2019-06-04T00:20:18.178Z,2.67
2019-06-04T00:22:48.754Z,3.23
2019-06-04T00:25:19.320Z,3.03
2019-06-04T00:27:49.704Z,3.17
2019-06-04T00:30:34.746Z,3.20
2019-06-04T00:33:05.832Z,3.03
2019-06-04T00:35:36.398Z,3.50
2019-06-04T00:38:07.006Z,3.47
2019-06-04T00:40:37.608Z,2.63
2019-06-04T00:43:09.697Z,3.10
2019-06-04T00:45:40.253Z,3.30
2019-06-04T00:48:10.628Z,3.20
2019-06-04T00:50:41.228Z,3.20
2019-06-04T00:53:11.627Z,3.27
2019-06-04T00:55:42.093Z,3.00
2019-06-04T00:58:12.510Z,3.50
2019-06-04T01:00:42.936Z,3.33
2019-06-04T01:03:13.343Z,3.23
2019-06-04T01:05:43.946Z,3.10
2019-06-04T01:08:21.149Z,3.30
2019-06-04T01:10:46.662Z,3.70
2019-06-04T01:13:17.233Z,2.87
2019-06-04T01:15:47.669Z,2.80
2019-06-04T01:18:18.075Z,3.50
2019-06-04T01:20:49.720Z,2.53
2019-06-04T01:23:21.375Z,3.30
2019-06-04T01:25:51.800Z,3.70
2019-06-04T01:28:22.382Z,2.50
2019-06-04T01:30:52.823Z,3.60
2019-06-04T01:33:38.496Z,2.80
2019-06-04T01:35:55.415Z,2.90
2019-06-04T01:38:26.440Z,3.30
2019-06-04T01:40:56.840Z,2.87
2019-06-04T01:43:27.453Z,3.60
2019-06-04T01:45:57.875Z,2.80
2019-06-04T01:48:28.335Z,3.60
2019-06-04T01:50:59.039Z,3.23
2019-06-04T01:53:29.448Z,2.77
2019-06-04T01:55:59.849Z,3.27
2019-06-04T01:58:30.289Z,3.27
2019-06-04T02:01:00.655Z,2.97
2019-06-04T02:03:31.082Z,3.83
2019-06-04T02:06:01.536Z,3.40
2019-06-04T02:08:32.151Z,3.03
2019-06-04T02:11:02.565Z,3.43
2019-06-04T02:13:33.023Z,3.80
2019-06-04T02:16:03.608Z,3.30
2019-06-04T02:18:34.185Z,2.63
2019-06-04T02:21:05.886Z,2.13
2019-06-04T02:23:36.531Z,2.57
2019-06-04T02:26:08.259Z,2.40
2019-06-04T02:28:39.406Z,2.70
2019-06-04T02:31:10.517Z,3.07
2019-06-04T02:33:41.013Z,2.57
2019-06-04T02:36:12.985Z,2.60
2019-06-04T02:38:43.626Z,2.73
2019-06-04T02:41:14.763Z,2.70
2019-06-04T02:43:45.775Z,2.40
2019-06-04T02:46:16.519Z,2.60
2019-06-04T02:48:48.448Z,2.80
2019-06-04T02:51:21.469Z,2.30
2019-06-04T02:53:54.184Z,2.47
2019-06-04T02:56:26.325Z,2.10
2019-06-04T02:58:59.790Z,2.43
2019-06-04T03:01:30.365Z,2.93
2019-06-04T03:04:00.777Z,2.80
2019-06-04T03:06:31.582Z,2.60
2019-06-04T03:09:01.985Z,3.00
2019-06-04T03:11:32.439Z,2.60
2019-06-04T03:14:02.845Z,2.03
2019-06-04T03:16:33.283Z,2.70
2019-06-04T03:19:04.019Z,2.30
2019-06-04T03:21:37.399Z,3.30
2019-06-04T03:24:07.961Z,2.20
2019-06-04T03:26:38.390Z,2.30
2019-06-04T03:29:08.785Z,2.63
2019-06-04T03:31:39.258Z,2.87
2019-06-04T03:34:09.654Z,3.07
2019-06-04T03:36:40.071Z,2.90
2019-06-04T03:39:10.490Z,2.33
2019-06-04T03:41:40.948Z,2.40
2019-06-04T03:44:11.351Z,2.30
2019-06-04T03:46:41.722Z,3.17
2019-06-04T03:49:12.156Z,2.60
2019-06-04T03:51:42.546Z,3.03
2019-06-04T03:54:13.009Z,2.97
2019-06-04T03:56:43.403Z,3.27
2019-06-04T03:59:13.844Z,2.83
2019-06-04T04:01:44.279Z,2.70
2019-06-04T04:04:14.733Z,3.13
2019-06-04T04:06:45.289Z,3.77
2019-06-04T04:09:16.447Z,2.90
2019-06-04T04:11:46.948Z,3.30
2019-06-04T04:14:18.755Z,3.20
2019-06-04T04:16:51.691Z,2.80
2019-06-04T04:19:23.261Z,3.93
2019-06-04T04:21:53.913Z,2.80
2019-06-04T04:24:25.100Z,3.63
2019-06-04T04:26:55.662Z,2.53
2019-06-04T04:29:26.127Z,2.70
2019-06-04T04:31:56.555Z,3.20
2019-06-04T04:34:35.831Z,3.40
2019-06-04T04:36:59.110Z,3.10
2019-06-04T04:39:29.555Z,3.10
2019-06-04T04:42:00.043Z,4.43
2019-06-04T04:44:30.504Z,2.80
2019-06-04T04:47:00.985Z,2.67
2019-06-04T04:49:34.219Z,2.60
2019-06-04T04:52:04.011Z,3.30
2019-06-04T04:54:34.532Z,2.73
2019-06-04T04:57:05.226Z,2.90
2019-06-04T04:59:35.672Z,2.73
2019-06-04T05:02:06.258Z,2.50
2019-06-04T05:04:48.636Z,3.20
2019-06-04T05:07:10.995Z,2.40
2019-06-04T05:09:42.053Z,2.80
2019-06-04T05:12:12.930Z,3.07
2019-06-04T05:14:46.142Z,2.77
2019-06-04T05:17:18.176Z,2.43
2019-06-04T05:19:50.455Z,2.67
2019-06-04T05:22:21.436Z,4.93
2019-06-04T05:24:51.951Z,3.00
2019-06-04T05:27:23.816Z,2.47
2019-06-04T05:29:54.199Z,2.57
2019-06-04T05:32:25.976Z,2.30
2019-06-04T05:35:04.269Z,2.03
2019-06-04T05:37:29.184Z,2.30
2019-06-04T05:39:59.842Z,2.10
2019-06-04T05:42:30.660Z,1.80
2019-06-04T05:45:01.309Z,2.07
2019-06-04T05:47:32.821Z,1.80
2019-06-04T05:50:03.406Z,2.40
2019-06-04T05:52:33.830Z,2.03
2019-06-04T05:55:04.433Z,1.80
2019-06-04T05:57:34.942Z,1.50
2019-06-04T06:00:07.506Z,1.67
2019-06-04T06:02:37.966Z,1.50
2019-06-04T06:05:23.601Z,1.70
2019-06-04T06:07:41.328Z,2.23
2019-06-04T07:02:20.673Z,4.53
2019-06-04T07:04:36.203Z,3.83
2019-06-04T07:07:06.662Z,3.80
2019-06-04T07:09:41.752Z,3.27
2019-06-04T07:12:12.221Z,3.50
2019-06-04T07:14:45.895Z,3.90
2019-06-04T07:17:15.097Z,3.23
2019-06-04T07:19:45.672Z,2.70
2019-06-04T07:22:16.050Z,2.80
2019-06-04T07:24:46.532Z,2.60
2019-06-04T07:27:17.064Z,2.03
2019-06-04T07:29:47.491Z,2.33
2019-06-04T07:32:17.928Z,2.67
2019-06-04T07:34:48.385Z,2.20
2019-06-04T07:37:18.855Z,2.20
2019-06-04T07:40:05.283Z,2.20
2019-06-04T07:42:21.431Z,1.80
2019-06-04T07:45:10.914Z,2.50
2019-06-04T07:47:41.790Z,2.17
2019-06-04T07:50:14.323Z,2.00
2019-06-04T07:52:44.918Z,1.97
2019-06-04T07:55:15.358Z,1.83
2019-06-04T07:57:45.852Z,1.53
2019-06-04T08:00:26.709Z,1.60
2019-06-04T08:02:57.227Z,1.65
2019-06-04T08:05:27.696Z,1.40
2019-06-04T08:07:58.317Z,1.70
2019-06-04T08:10:28.926Z,1.67
2019-06-04T08:12:59.363Z,2.20
2019-06-04T08:15:29.787Z,1.90
2019-06-04T08:18:00.194Z,3.87
2019-06-04T08:20:30.701Z,2.03
2019-06-04T08:23:01.164Z,2.87
2019-06-04T08:25:32.561Z,2.13
2019-06-04T08:28:03.658Z,2.13
2019-06-04T08:30:34.540Z,2.20
2019-06-04T08:33:05.285Z,2.40
2019-06-04T08:35:37.039Z,3.07
2019-06-04T08:38:07.530Z,2.10
2019-06-04T08:40:39.462Z,2.23
2019-06-04T08:43:10.259Z,2.10
2019-06-04T08:45:41.623Z,1.90
2019-06-04T08:48:12.216Z,2.03
2019-06-04T08:50:43.978Z,2.20
2019-06-04T08:53:14.639Z,2.27
2019-06-04T08:55:46.318Z,2.07
2019-06-04T08:58:17.586Z,1.70
2019-06-04T09:00:49.853Z,1.90
2019-06-04T09:03:20.470Z,2.00
2019-06-04T09:05:51.111Z,2.03
2019-06-04T09:08:21.949Z,2.17
2019-06-04T09:10:52.597Z,2.07
2019-06-04T09:13:23.047Z,2.70
2019-06-04T09:15:55.984Z,1.90
2019-06-04T09:18:25.797Z,2.43
2019-06-04T09:20:56.180Z,1.93
2019-06-04T09:23:26.719Z,1.77
2019-06-04T09:25:57.124Z,1.70
2019-06-04T09:28:27.860Z,2.13
2019-06-04T09:31:03.335Z,1.90
2019-06-04T09:33:30.576Z,1.93
2019-06-04T09:36:01.046Z,1.50
2019-06-04T09:38:31.514Z,1.90
2019-06-04T09:41:01.940Z,2.13
2019-06-04T09:43:32.498Z,1.87
2019-06-04T09:46:03.200Z,2.40
2019-06-04T09:48:34.012Z,1.83
2019-06-04T09:51:04.538Z,2.50
2019-06-04T09:53:34.949Z,2.77
2019-06-04T09:56:05.624Z,2.50
2019-06-04T09:58:36.047Z,2.13
2019-06-04T10:01:06.872Z,2.70
2019-06-04T10:03:37.653Z,2.80
2019-06-04T10:06:08.279Z,2.57
2019-06-04T10:08:38.820Z,2.23
2019-06-04T10:11:09.473Z,2.30
2019-06-04T10:13:40.136Z,2.20
2019-06-04T10:16:10.963Z,2.50
2019-06-04T10:18:41.397Z,2.30
2019-06-04T10:21:11.800Z,2.23
2019-06-04T10:23:42.414Z,2.00
2019-06-04T10:26:24.087Z,2.33
2019-06-04T10:28:47.577Z,2.20
2019-06-04T10:31:17.370Z,2.87
2019-06-04T10:33:48.244Z,2.60
2019-06-04T10:36:18.867Z,2.53
2019-06-04T10:38:49.430Z,2.60
2019-06-04T10:41:19.847Z,2.23
2019-06-04T10:43:51.397Z,2.90
2019-06-04T10:46:22.200Z,2.20
2019-06-04T10:48:52.635Z,3.30
2019-06-04T10:51:23.093Z,2.43
2019-06-04T10:53:53.777Z,2.70
2019-06-04T10:56:24.479Z,2.57
2019-06-04T10:58:56.277Z,2.40
2019-06-04T11:01:26.862Z,3.10
2019-06-04T11:03:57.478Z,3.00
2019-06-04T11:06:27.932Z,2.80
2019-06-04T11:09:08.738Z,2.30
2019-06-04T11:11:30.806Z,3.43
2019-06-04T11:14:04.047Z,2.40
2019-06-04T11:16:33.391Z,3.00
2019-06-04T11:19:03.802Z,2.93
2019-06-04T11:21:39.711Z,2.50
2019-06-04T11:24:06.766Z,3.27
2019-06-04T11:26:39.212Z,2.67
2019-06-04T11:29:09.675Z,2.60
2019-06-04T11:31:40.172Z,2.50
2019-06-04T11:34:25.806Z,3.03
2019-06-04T11:36:42.891Z,3.30
2019-06-04T11:39:19.302Z,2.13
2019-06-04T11:41:45.506Z,2.63
2019-06-04T11:44:15.971Z,2.47
2019-06-04T11:46:46.604Z,2.50
2019-06-04T11:49:17.093Z,2.43
2019-06-04T11:51:47.749Z,2.50
2019-06-04T11:54:18.342Z,2.63
2019-06-04T11:56:49.490Z,3.13
2019-06-04T11:59:20.524Z,2.33
2019-06-04T12:01:51.950Z,2.10
2019-06-04T12:04:22.427Z,2.50
2019-06-04T12:06:54.562Z,2.40
2019-06-04T12:09:31.105Z,1.87
2019-06-04T12:12:33.734Z,2.50
2019-06-04T12:14:29.624Z,2.20
2019-06-04T12:17:02.323Z,1.90
2019-06-04T12:19:32.697Z,2.17
2019-06-04T12:22:03.987Z,2.43
2019-06-04T12:24:34.542Z,2.13
2019-06-04T12:27:05.346Z,2.03
2019-06-04T12:29:36.161Z,2.30
2019-06-04T12:32:06.579Z,2.00
2019-06-04T12:34:37.009Z,2.10
2019-06-04T12:37:07.673Z,1.83
2019-06-04T12:39:50.201Z,2.00
2019-06-04T12:42:10.292Z,1.87
2019-06-04T12:44:40.857Z,2.07
2019-06-04T12:47:14.683Z,2.10
2019-06-04T12:49:49.882Z,2.37
2019-06-04T12:52:16.199Z,2.13
2019-06-04T12:54:47.057Z,2.57
2019-06-04T12:57:18.309Z,1.70
2019-06-04T12:59:48.934Z,2.20
2019-06-04T13:02:26.738Z,1.57
2019-06-04T13:04:53.418Z,2.03
2019-06-04T13:07:24.855Z,1.80
2019-06-04T13:10:13.265Z,2.23
2019-06-04T13:12:29.754Z,2.10
2019-06-04T13:15:01.208Z,1.97
2019-06-04T13:17:31.828Z,1.73
2019-06-04T13:20:23.966Z,1.50
2019-06-04T13:22:36.378Z,1.53
2019-06-04T13:25:08.474Z,1.67
2019-06-04T13:27:40.807Z,1.53
2019-06-04T13:30:14.120Z,1.50
2019-06-04T13:32:44.785Z,1.67
2019-06-04T13:35:15.239Z,1.47
2019-06-04T13:37:45.742Z,1.40
2019-06-04T13:40:29.588Z,1.67
2019-06-04T13:42:48.742Z,1.33
2019-06-04T13:45:19.382Z,1.70
2019-06-04T13:47:49.779Z,1.70
2019-06-04T13:50:20.552Z,1.73
2019-06-04T13:52:51.153Z,1.93
2019-06-04T13:55:21.607Z,1.57
2019-06-04T13:57:52.132Z,1.50
2019-06-04T14:00:40.640Z,1.53
2019-06-04T14:02:55.869Z,1.70
2019-06-04T14:05:26.680Z,1.90
2019-06-04T14:07:57.137Z,1.70
2019-06-04T14:10:27.697Z,1.50
2019-06-04T14:12:58.314Z,1.47
2019-06-04T14:15:28.828Z,1.37
2019-06-04T14:17:59.257Z,1.63
2019-06-04T14:20:32.372Z,1.50
2019-06-04T14:23:07.575Z,1.63
2019-06-04T14:25:35.502Z,1.60
2019-06-04T14:28:08.772Z,1.37
2019-06-04T14:30:38.369Z,1.57
2019-06-04T14:33:10.294Z,1.30
2019-06-04T14:35:41.002Z,1.47
2019-06-04T14:38:12.358Z,1.57
2019-06-04T14:40:42.995Z,1.40
2019-06-04T14:43:14.278Z,1.80
2019-06-04T14:45:45.232Z,1.50
2019-06-04T14:48:16.373Z,1.57
2019-06-04T14:50:46.812Z,1.73
2019-06-04T14:53:17.270Z,2.13
2019-06-04T14:55:47.664Z,1.70
2019-06-04T14:58:18.142Z,1.90
2019-06-04T15:00:48.552Z,1.77
2019-06-04T15:03:19.627Z,1.43
2019-06-04T15:05:50.233Z,1.40
2019-06-04T15:08:21.239Z,1.33
2019-06-04T15:10:51.941Z,1.60
2019-06-04T15:13:22.614Z,1.30
2019-06-04T15:15:53.057Z,1.30
2019-06-04T15:18:23.543Z,1.50
2019-06-04T15:20:56.730Z,1.60
2019-06-04T15:23:26.327Z,1.80
2019-06-04T15:25:56.895Z,1.50
2019-06-04T15:28:27.414Z,1.10
2019-06-04T15:30:57.836Z,1.57
2019-06-04T15:33:28.302Z,1.70
2019-06-04T15:35:58.998Z,1.57
2019-06-04T15:38:29.525Z,1.67
2019-06-04T15:41:00.028Z,1.50
2019-06-04T15:43:30.749Z,1.70
2019-06-04T15:46:01.181Z,1.70
2019-06-04T15:48:31.685Z,1.13
2019-06-04T15:51:02.280Z,1.90
2019-06-04T15:53:32.759Z,1.70
2019-06-04T15:56:03.286Z,1.50
2019-06-04T15:58:33.772Z,1.80
2019-06-04T16:01:04.231Z,1.43
2019-06-04T16:03:48.802Z,1.67
2019-06-04T16:06:06.865Z,1.80
2019-06-04T16:08:37.429Z,1.50
2019-06-04T16:11:08.078Z,1.60
2019-06-04T16:13:38.532Z,1.53
2019-06-04T16:16:09.028Z,1.50
2019-06-04T16:18:39.483Z,1.60
2019-06-04T16:21:10.168Z,1.77
2019-06-04T16:23:40.884Z,1.93
2019-06-04T16:26:11.432Z,1.60
2019-06-04T16:28:41.875Z,2.17
2019-06-04T16:31:12.366Z,1.63
2019-06-04T16:33:42.800Z,1.53
2019-06-04T16:36:13.271Z,1.50
2019-06-04T16:38:43.707Z,1.30
2019-06-04T16:41:14.170Z,1.63
2019-06-04T16:43:44.794Z,1.60
2019-06-04T16:46:15.254Z,2.13
2019-06-04T16:48:45.683Z,1.20
2019-06-04T16:51:16.071Z,1.40
2019-06-04T16:53:46.557Z,1.10
2019-06-04T16:56:17.111Z,1.47
2019-06-04T16:58:47.603Z,1.50
2019-06-04T17:01:19.886Z,1.67
2019-06-04T17:03:50.232Z,1.50
2019-06-04T17:06:21.731Z,1.97
2019-06-04T17:08:52.415Z,1.73
2019-06-04T17:11:24.180Z,1.37
2019-06-04T17:13:55.100Z,1.37
2019-06-04T17:16:26.736Z,1.67
2019-06-04T17:18:58.174Z,1.40
2019-06-04T17:21:29.159Z,1.47
2019-06-04T17:24:00.299Z,1.73
2019-06-04T17:26:31.816Z,1.90
2019-06-04T17:29:02.306Z,1.17
2019-06-04T17:31:32.809Z,1.60
2019-06-04T17:34:05.175Z,1.60
2019-06-04T17:36:35.700Z,1.33
2019-06-04T17:39:07.834Z,1.73
2019-06-04T17:41:38.341Z,1.93
2019-06-04T17:44:08.777Z,1.77
2019-06-04T17:46:39.237Z,2.10
2019-06-04T17:49:09.805Z,1.80
2019-06-04T17:51:40.206Z,2.27
2019-06-04T17:54:10.612Z,1.47
2019-06-04T17:56:40.988Z,2.10
2019-06-04T17:59:11.439Z,2.00
2019-06-04T18:01:41.891Z,1.53
2019-06-04T18:04:12.562Z,1.83
2019-06-04T18:06:43.127Z,2.10
2019-06-04T18:09:13.696Z,1.80
2019-06-04T18:11:44.223Z,1.70
2019-06-04T18:14:14.634Z,1.90
2019-06-04T18:16:45.457Z,1.73
2019-06-04T18:19:16.592Z,1.97
2019-06-04T18:21:51.197Z,2.00
2019-06-04T18:24:20.082Z,1.90
2019-06-04T18:26:50.542Z,1.63
2019-06-04T18:29:21.052Z,2.00
2019-06-04T18:31:51.924Z,1.83
2019-06-04T18:34:22.421Z,1.97
2019-06-04T18:36:53.148Z,1.77
2019-06-04T18:39:23.608Z,1.70
2019-06-04T18:41:54.283Z,1.77
2019-06-04T18:44:24.907Z,2.40
2019-06-04T18:46:55.620Z,1.80
2019-06-04T18:49:27.111Z,2.10
2019-06-04T18:52:00.335Z,1.67
2019-06-04T18:54:33.204Z,1.90
2019-06-04T18:57:03.761Z,1.97
2019-06-04T18:59:36.275Z,1.77
2019-06-04T19:02:07.071Z,1.70
2019-06-04T19:04:38.889Z,2.00
2019-06-04T19:07:09.744Z,1.83
2019-06-04T19:09:56.154Z,2.20
2019-06-04T19:12:26.961Z,1.90
2019-06-04T19:14:59.490Z,2.10
2019-06-04T19:17:31.464Z,1.70
2019-06-04T19:20:02.024Z,1.70
2019-06-04T19:22:32.993Z,1.90
2019-06-04T19:25:03.721Z,1.67
2019-06-04T19:27:35.509Z,1.60
2019-06-04T19:30:08.040Z,1.53
2019-06-04T19:32:44.833Z,1.72
2019-06-04T19:35:15.456Z,1.90
2019-06-04T19:37:46.513Z,1.90
2019-06-04T19:40:17.457Z,2.07
2019-06-04T19:42:48.249Z,2.20
2019-06-04T19:45:18.884Z,2.33
2019-06-04T19:47:49.376Z,2.30
2019-06-04T19:50:20.272Z,2.77
2019-06-04T19:52:50.686Z,2.20
2019-06-04T19:55:22.097Z,2.00
2019-06-04T19:57:52.641Z,2.00
2019-06-04T20:00:24.610Z,2.20
2019-06-04T20:02:55.252Z,1.80
2019-06-04T20:05:43.617Z,1.97
2019-06-04T20:07:58.214Z,1.80
2019-06-04T20:10:28.890Z,2.57
2019-06-04T20:12:59.624Z,2.40
2019-06-04T20:15:30.194Z,2.40
2019-06-04T20:18:00.746Z,1.80
2019-06-04T20:20:31.397Z,2.37
2019-06-04T20:23:01.979Z,2.17
2019-06-04T20:25:32.404Z,1.87
2019-06-04T20:28:02.906Z,2.40
2019-06-04T20:30:33.376Z,2.77
2019-06-04T20:33:03.951Z,2.90
2019-06-04T20:35:34.410Z,2.17
2019-06-04T20:38:05.009Z,2.70
2019-06-04T20:40:35.448Z,2.50
2019-06-04T20:43:06.115Z,2.70
2019-06-04T20:45:36.554Z,2.30
2019-06-04T20:48:07.100Z,2.30
2019-06-04T20:50:37.666Z,2.43
2019-06-04T20:53:08.212Z,2.27
2019-06-04T20:55:38.669Z,2.87
2019-06-04T20:58:09.341Z,2.90
2019-06-04T21:00:41.361Z,3.13
2019-06-04T21:03:12.308Z,3.20
2019-06-04T21:05:43.096Z,2.90
2019-06-04T21:08:13.540Z,3.40
2019-06-04T21:10:44.999Z,3.23
2019-06-04T21:13:15.583Z,3.43
2019-06-04T21:15:46.016Z,3.17
2019-06-04T21:18:17.291Z,3.63
2019-06-04T21:20:49.260Z,3.53
2019-06-04T21:23:19.707Z,3.00
2019-06-04T21:25:50.293Z,2.90
2019-06-04T21:28:20.799Z,3.10
2019-06-04T21:30:53.926Z,2.97
2019-06-04T21:33:24.566Z,2.83
2019-06-04T21:35:55.146Z,2.70
2019-06-04T21:38:25.704Z,3.07
2019-06-04T21:40:56.180Z,3.20
2019-06-04T21:43:26.709Z,2.70
2019-06-04T21:45:57.137Z,3.77
2019-06-04T21:48:27.648Z,3.20
2019-06-04T21:50:58.198Z,2.57
2019-06-04T21:53:28.735Z,2.93
2019-06-04T21:55:59.236Z,3.33
2019-06-04T21:58:29.856Z,2.90
2019-06-04T22:01:00.759Z,2.87
2019-06-04T22:03:31.203Z,3.00
2019-06-04T22:06:01.866Z,3.30
2019-06-04T22:08:32.429Z,3.27
2019-06-04T22:11:03.036Z,3.67
2019-06-04T22:13:33.481Z,3.23
2019-06-04T22:16:10.846Z,2.77
2019-06-04T22:18:36.268Z,2.50
2019-06-04T22:21:06.817Z,2.80
2019-06-04T22:23:37.485Z,2.83
2019-06-04T22:26:08.149Z,2.77
2019-06-04T22:28:38.646Z,2.80
2019-06-04T22:31:09.084Z,3.00
2019-06-04T22:33:39.549Z,3.07
2019-06-04T22:36:10.042Z,3.23
2019-06-04T22:38:40.494Z,3.03
2019-06-04T22:41:11.156Z,2.60
2019-06-04T22:43:41.643Z,2.60
2019-06-04T22:46:18.991Z,2.80
2019-06-04T22:48:44.313Z,2.60
2019-06-04T22:51:14.738Z,2.90
2019-06-04T22:53:45.205Z,3.63
2019-06-04T22:56:15.613Z,3.20
2019-06-04T22:58:46.050Z,3.17
2019-06-04T23:01:16.478Z,3.20
2019-06-04T23:03:46.947Z,3.17
2019-06-04T23:06:34.322Z,2.90
2019-06-04T23:08:49.654Z,2.70
2019-06-04T23:11:20.157Z,3.43
2019-06-04T23:13:50.767Z,3.00
2019-06-04T23:16:36.492Z,2.67
2019-06-04T23:18:54.657Z,2.87
2019-06-04T23:21:25.777Z,2.70
2019-06-04T23:23:56.801Z,2.30
2019-06-04T23:26:28.246Z,3.33
2019-06-04T23:28:58.739Z,2.60
2019-06-04T23:31:29.136Z,3.40
2019-06-04T23:34:00.765Z,2.63
2019-06-04T23:36:31.286Z,2.80
2019-06-04T23:39:01.798Z,3.70
2019-06-04T23:41:32.156Z,3.20
2019-06-04T23:44:02.686Z,3.10
2019-06-04T23:46:33.334Z,2.50
2019-06-04T23:49:09.807Z,2.63
2019-06-04T23:51:36.009Z,2.73
2019-06-04T23:54:06.458Z,2.40
2019-06-04T23:56:36.902Z,2.70
2019-06-04T23:59:07.319Z,2.97
